createdAt,value
2022-12-22T00:00:38.019Z,34.20
2022-12-22T00:01:38.129Z,37.10
2022-12-22T00:02:38.178Z,38.30
2022-12-22T00:03:38.117Z,38.90
2022-12-22T00:04:37.908Z,35.20
2022-12-22T00:05:37.889Z,37.10
2022-12-22T00:06:37.857Z,38.10
2022-12-22T00:07:37.831Z,39.00
2022-12-22T00:08:37.827Z,40.20
2022-12-22T00:09:37.783Z,36.60
2022-12-22T00:10:37.748Z,35.80
2022-12-22T00:11:37.728Z,35.80
2022-12-22T00:12:37.706Z,36.30
2022-12-22T00:13:37.674Z,36.50
2022-12-22T00:14:37.662Z,39.10
2022-12-22T00:15:37.625Z,38.10
2022-12-22T00:16:37.721Z,38.50
2022-12-22T00:17:37.609Z,37.80
2022-12-22T00:18:37.626Z,36.80
2022-12-22T00:19:37.520Z,40.20
2022-12-22T00:20:37.508Z,37.20
2022-12-22T00:21:37.463Z,42.60
2022-12-22T00:22:37.450Z,35.70
2022-12-22T00:23:37.409Z,40.50
2022-12-22T00:24:37.401Z,39.30
2022-12-22T00:25:37.355Z,38.60
2022-12-22T00:26:37.339Z,43.60
2022-12-22T00:27:40.106Z,39.90
2022-12-22T00:28:37.275Z,38.60
2022-12-22T00:29:37.266Z,39.60
2022-12-22T00:30:37.271Z,39.90
2022-12-22T00:31:37.200Z,38.90
2022-12-22T00:32:37.204Z,38.10
2022-12-22T00:33:37.151Z,40.40
2022-12-22T00:34:37.124Z,36.00
2022-12-22T00:35:37.090Z,37.90
2022-12-22T00:36:37.071Z,45.30
2022-12-22T00:37:37.037Z,42.40
2022-12-22T00:38:37.027Z,40.50
2022-12-22T00:39:36.987Z,38.70
2022-12-22T00:40:36.985Z,36.80
2022-12-22T00:41:36.944Z,39.60
2022-12-22T00:42:36.918Z,39.30
2022-12-22T00:43:36.877Z,38.40
2022-12-22T00:44:36.871Z,39.90
2022-12-22T00:45:36.854Z,38.20
2022-12-22T00:46:36.803Z,40.20
2022-12-22T00:47:36.780Z,37.60
2022-12-22T00:48:36.756Z,39.20
2022-12-22T00:49:36.723Z,38.00
2022-12-22T00:50:36.699Z,36.40
2022-12-22T00:51:36.673Z,39.80
2022-12-22T00:52:36.643Z,37.60
2022-12-22T00:53:36.619Z,35.90
2022-12-22T00:54:36.600Z,35.10
2022-12-22T00:55:36.567Z,35.40
2022-12-22T00:56:36.560Z,38.70
2022-12-22T00:57:36.510Z,33.00
2022-12-22T00:58:36.485Z,34.90
2022-12-22T00:59:36.486Z,35.90
2022-12-22T01:00:36.446Z,33.20
2022-12-22T01:01:36.533Z,34.00
2022-12-22T01:02:36.583Z,31.80
2022-12-22T01:03:36.390Z,31.80
2022-12-22T01:04:36.330Z,31.80
2022-12-22T01:05:36.313Z,37.80
2022-12-22T01:06:36.292Z,33.00
2022-12-22T01:07:36.251Z,33.70
2022-12-22T01:08:36.224Z,32.40
2022-12-22T01:09:36.204Z,33.60
2022-12-22T01:10:36.183Z,32.20
2022-12-22T01:11:36.151Z,32.10
2022-12-22T01:12:36.138Z,31.10
2022-12-22T01:13:36.099Z,29.70
2022-12-22T01:14:36.065Z,33.40
2022-12-22T01:15:36.088Z,34.00
2022-12-22T01:16:36.078Z,33.40
2022-12-22T01:17:35.989Z,31.30
2022-12-22T01:18:35.961Z,29.30
2022-12-22T01:19:35.933Z,35.70
2022-12-22T01:20:35.908Z,31.70
2022-12-22T01:21:35.881Z,35.00
2022-12-22T01:22:35.862Z,31.50
2022-12-22T01:23:35.831Z,31.40
2022-12-22T01:24:35.816Z,34.10
2022-12-22T01:25:35.779Z,34.00
2022-12-22T01:26:35.761Z,32.90
2022-12-22T01:27:35.725Z,31.60
2022-12-22T01:28:35.720Z,32.40
2022-12-22T01:29:35.670Z,32.00
2022-12-22T01:30:35.693Z,30.80
2022-12-22T01:31:35.620Z,31.50
2022-12-22T01:32:35.592Z,32.40
2022-12-22T01:33:35.565Z,30.90
2022-12-22T01:34:35.541Z,28.60
2022-12-22T01:35:35.544Z,32.10
2022-12-22T01:36:35.490Z,35.20
2022-12-22T01:37:35.469Z,29.00
2022-12-22T01:38:35.460Z,30.30
2022-12-22T01:39:35.410Z,32.60
2022-12-22T01:40:35.382Z,32.00
2022-12-22T01:41:35.357Z,30.70
2022-12-22T01:42:35.332Z,30.20
2022-12-22T01:43:35.305Z,34.50
2022-12-22T01:44:35.302Z,30.80
2022-12-22T01:45:35.251Z,32.10
2022-12-22T01:46:35.251Z,33.00
2022-12-22T01:47:35.202Z,28.50
2022-12-22T01:48:35.171Z,30.00
2022-12-22T01:49:35.146Z,30.20
2022-12-22T01:50:35.124Z,32.00
2022-12-22T01:51:35.113Z,38.90
2022-12-22T01:52:35.068Z,32.50
2022-12-22T01:53:35.042Z,34.00
2022-12-22T01:54:35.013Z,30.70
2022-12-22T01:55:34.988Z,30.80
2022-12-22T01:56:34.960Z,30.00
2022-12-22T01:57:34.935Z,30.00
2022-12-22T01:58:34.914Z,32.60
2022-12-22T01:59:34.997Z,34.70
2022-12-22T02:00:34.894Z,34.40
2022-12-22T02:01:34.912Z,33.40
2022-12-22T02:02:34.989Z,35.10
2022-12-22T02:03:34.932Z,32.60
2022-12-22T02:04:34.751Z,34.80
2022-12-22T02:05:34.726Z,33.90
2022-12-22T02:06:34.699Z,32.70
2022-12-22T02:07:34.677Z,32.60
2022-12-22T02:08:34.644Z,37.20
2022-12-22T02:09:34.629Z,32.60
2022-12-22T02:10:34.600Z,33.10
2022-12-22T02:11:34.577Z,35.40
2022-12-22T02:12:34.561Z,34.00
2022-12-22T02:13:34.517Z,34.30
2022-12-22T02:14:34.488Z,35.00
2022-12-22T02:15:34.579Z,36.70
2022-12-22T02:16:34.479Z,40.20
2022-12-22T02:17:34.435Z,36.10
2022-12-22T02:18:34.387Z,32.80
2022-12-22T02:19:34.362Z,34.80
2022-12-22T02:20:34.337Z,34.10
2022-12-22T02:21:34.308Z,35.40
2022-12-22T02:22:34.283Z,32.20
2022-12-22T02:23:34.257Z,35.10
2022-12-22T02:24:34.228Z,35.10
2022-12-22T02:25:34.202Z,37.50
2022-12-22T02:26:34.178Z,38.20
2022-12-22T02:27:34.161Z,36.90
2022-12-22T02:28:34.136Z,36.10
2022-12-22T02:29:34.100Z,39.90
2022-12-22T02:30:34.076Z,37.70
2022-12-22T02:31:34.100Z,35.50
2022-12-22T02:32:34.044Z,36.70
2022-12-22T02:33:34.010Z,37.90
2022-12-22T02:34:33.985Z,40.30
2022-12-22T02:35:33.947Z,39.50
2022-12-22T02:36:33.915Z,40.20
2022-12-22T02:37:33.893Z,40.20
2022-12-22T02:38:33.870Z,39.40
2022-12-22T02:39:33.840Z,40.90
2022-12-22T02:40:40.909Z,42.10
2022-12-22T02:41:33.796Z,45.70
2022-12-22T02:42:33.761Z,41.90
2022-12-22T02:43:33.736Z,44.70
2022-12-22T02:44:33.720Z,42.30
2022-12-22T02:45:33.704Z,46.20
2022-12-22T02:46:33.702Z,40.50
2022-12-22T02:47:33.638Z,44.00
2022-12-22T02:48:33.638Z,45.10
2022-12-22T02:49:33.587Z,40.60
2022-12-22T02:50:33.566Z,42.60
2022-12-22T02:51:33.539Z,42.30
2022-12-22T02:52:33.502Z,45.30
2022-12-22T02:53:33.475Z,41.80
2022-12-22T02:54:33.447Z,45.00
2022-12-22T02:55:33.422Z,40.30
2022-12-22T02:56:33.395Z,48.60
2022-12-22T02:57:33.370Z,43.30
2022-12-22T02:58:33.358Z,46.40
2022-12-22T02:59:33.318Z,40.20
2022-12-22T03:00:33.295Z,40.80
2022-12-22T03:01:33.506Z,42.80
2022-12-22T03:02:33.411Z,44.00
2022-12-22T03:03:33.468Z,45.90
2022-12-22T03:04:33.212Z,40.10
2022-12-22T03:05:33.163Z,46.40
2022-12-22T03:06:33.134Z,43.90
2022-12-22T03:07:33.110Z,45.40
2022-12-22T03:08:33.082Z,43.00
2022-12-22T03:09:33.053Z,43.70
2022-12-22T03:10:33.031Z,45.00
2022-12-22T03:11:33.013Z,46.50
2022-12-22T03:12:32.977Z,43.20
2022-12-22T03:13:32.965Z,43.60
2022-12-22T03:14:32.924Z,51.50
2022-12-22T03:15:32.903Z,42.70
2022-12-22T03:16:32.984Z,48.50
2022-12-22T03:17:32.859Z,44.10
2022-12-22T03:18:32.821Z,44.80
2022-12-22T03:19:32.799Z,47.30
2022-12-22T03:20:32.784Z,46.70
2022-12-22T03:21:32.760Z,45.60
2022-12-22T03:22:32.716Z,45.20
2022-12-22T03:23:32.698Z,43.50
2022-12-22T03:24:32.660Z,44.70
2022-12-22T03:25:32.636Z,48.90
2022-12-22T03:26:32.609Z,48.10
2022-12-22T03:27:32.587Z,44.80
2022-12-22T03:28:32.571Z,45.50
2022-12-22T03:29:32.529Z,41.80
2022-12-22T03:30:32.509Z,40.70
2022-12-22T03:31:32.608Z,42.40
2022-12-22T03:32:32.458Z,41.10
2022-12-22T03:33:32.429Z,43.70
2022-12-22T03:34:32.402Z,41.00
2022-12-22T03:35:32.390Z,43.30
2022-12-22T03:36:32.369Z,45.50
2022-12-22T03:37:32.323Z,43.10
2022-12-22T03:38:32.316Z,39.60
2022-12-22T03:39:32.286Z,45.00
2022-12-22T03:40:32.280Z,40.20
2022-12-22T03:41:32.235Z,45.30
2022-12-22T03:42:32.192Z,43.70
2022-12-22T03:43:32.168Z,41.60
2022-12-22T03:44:32.137Z,41.40
2022-12-22T03:45:32.113Z,48.50
2022-12-22T03:46:32.250Z,44.40
2022-12-22T03:47:32.070Z,46.90
2022-12-22T03:48:32.034Z,47.60
2022-12-22T03:49:32.005Z,42.80
2022-12-22T03:50:31.986Z,45.10
2022-12-22T03:51:31.953Z,46.30
2022-12-22T03:52:31.950Z,44.50
2022-12-22T03:53:31.901Z,44.70
2022-12-22T03:54:31.876Z,46.30
2022-12-22T03:55:31.849Z,49.90
2022-12-22T03:56:31.825Z,38.20
2022-12-22T03:57:31.804Z,49.60
2022-12-22T03:58:31.778Z,42.20
2022-12-22T03:59:31.742Z,45.50
2022-12-22T04:00:31.717Z,46.10
2022-12-22T04:01:31.826Z,43.10
2022-12-22T04:02:31.790Z,44.60
2022-12-22T04:03:31.717Z,42.60
2022-12-22T04:04:31.613Z,42.70
2022-12-22T04:05:31.590Z,45.70
2022-12-22T04:06:31.579Z,44.60
2022-12-22T04:07:31.549Z,48.00
2022-12-22T04:08:31.526Z,46.80
2022-12-22T04:09:31.486Z,40.80
2022-12-22T04:10:31.453Z,44.90
2022-12-22T04:11:31.430Z,43.00
2022-12-22T04:12:31.400Z,48.40
2022-12-22T04:13:31.376Z,46.50
2022-12-22T04:14:34.411Z,46.70
2022-12-22T04:15:31.323Z,43.20
2022-12-22T04:16:31.356Z,42.40
2022-12-22T04:17:31.272Z,44.20
2022-12-22T04:18:31.246Z,44.70
2022-12-22T04:19:31.218Z,43.40
2022-12-22T04:20:31.193Z,44.50
2022-12-22T04:21:31.166Z,40.50
2022-12-22T04:22:31.179Z,44.60
2022-12-22T04:23:31.112Z,45.10
2022-12-22T04:24:31.109Z,44.80
2022-12-22T04:25:31.058Z,46.60
2022-12-22T04:26:31.035Z,43.00
2022-12-22T04:27:31.024Z,48.00
2022-12-22T04:28:31.029Z,43.50
2022-12-22T04:29:30.973Z,42.10
2022-12-22T04:30:30.927Z,43.20
2022-12-22T04:31:30.954Z,39.90
2022-12-22T04:32:30.874Z,45.40
2022-12-22T04:33:30.850Z,43.90
2022-12-22T04:34:30.821Z,41.10
2022-12-22T04:35:30.797Z,43.40
2022-12-22T04:36:30.770Z,44.30
2022-12-22T04:37:30.747Z,43.00
2022-12-22T04:38:30.716Z,41.80
2022-12-22T04:39:30.696Z,40.60
2022-12-22T04:40:30.688Z,45.60
2022-12-22T04:41:30.638Z,44.30
2022-12-22T04:42:30.769Z,46.80
2022-12-22T04:43:30.587Z,45.80
2022-12-22T04:44:30.562Z,43.20
2022-12-22T04:45:30.608Z,45.00
2022-12-22T04:46:30.560Z,47.20
2022-12-22T04:47:30.485Z,45.80
2022-12-22T04:48:30.461Z,46.70
2022-12-22T04:49:30.430Z,45.70
2022-12-22T04:50:30.405Z,43.20
2022-12-22T04:51:30.388Z,42.30
2022-12-22T04:52:30.352Z,43.50
2022-12-22T04:53:30.326Z,41.90
2022-12-22T04:54:30.305Z,39.40
2022-12-22T04:55:30.274Z,42.50
2022-12-22T04:56:30.267Z,44.10
2022-12-22T04:57:30.224Z,43.80
2022-12-22T04:58:30.196Z,38.00
2022-12-22T04:59:30.168Z,45.00
2022-12-22T05:00:30.148Z,44.70
2022-12-22T05:01:30.209Z,42.60
2022-12-22T05:02:30.224Z,42.20
2022-12-22T05:03:30.158Z,42.20
2022-12-22T05:04:30.061Z,41.40
2022-12-22T05:05:30.018Z,48.80
2022-12-22T05:06:29.988Z,48.30
2022-12-22T05:07:29.965Z,57.90
2022-12-22T05:08:29.936Z,53.80
2022-12-22T05:09:29.904Z,52.90
2022-12-22T05:10:29.884Z,51.30
2022-12-22T05:11:29.857Z,65.80
2022-12-22T05:12:29.870Z,52.20
2022-12-22T05:13:29.801Z,56.20
2022-12-22T05:14:29.800Z,57.70
2022-12-22T05:15:29.754Z,54.10
2022-12-22T05:16:29.769Z,69.20
2022-12-22T05:17:29.700Z,61.20
2022-12-22T05:18:29.674Z,58.10
2022-12-22T05:19:31.068Z,49.50
2022-12-22T05:20:29.636Z,52.00
2022-12-22T05:21:29.595Z,49.10
2022-12-22T05:22:29.572Z,47.00
2022-12-22T05:23:29.547Z,46.10
2022-12-22T05:24:29.536Z,48.40
2022-12-22T05:25:34.712Z,49.90
2022-12-22T05:26:29.497Z,45.10
2022-12-22T05:27:29.438Z,47.20
2022-12-22T05:28:29.438Z,40.90
2022-12-22T05:29:29.383Z,46.60
2022-12-22T05:30:29.389Z,43.20
2022-12-22T05:31:29.496Z,56.30
2022-12-22T05:32:29.309Z,37.70
2022-12-22T05:33:29.286Z,40.00
2022-12-22T05:34:29.254Z,46.20
2022-12-22T05:35:29.227Z,58.80
2022-12-22T05:36:29.203Z,44.90
2022-12-22T05:37:29.174Z,45.70
2022-12-22T05:38:29.161Z,45.70
2022-12-22T05:39:29.138Z,55.30
2022-12-22T05:40:29.106Z,41.40
2022-12-22T05:41:29.077Z,52.70
2022-12-22T05:42:29.047Z,42.50
2022-12-22T05:43:29.040Z,48.90
2022-12-22T05:44:29.018Z,44.60
2022-12-22T05:45:28.972Z,44.80
2022-12-22T05:46:28.988Z,51.10
2022-12-22T05:47:28.918Z,45.30
2022-12-22T05:48:35.380Z,38.10
2022-12-22T05:49:28.884Z,42.40
2022-12-22T05:50:28.850Z,41.30
2022-12-22T05:51:28.809Z,36.10
2022-12-22T05:52:28.789Z,32.60
2022-12-22T05:53:28.759Z,42.50
2022-12-22T05:54:28.768Z,42.70
2022-12-22T05:55:28.711Z,39.70
2022-12-22T05:56:28.681Z,41.70
2022-12-22T05:57:28.654Z,38.80
2022-12-22T05:58:28.671Z,36.40
2022-12-22T05:59:28.615Z,38.30
2022-12-22T06:00:28.600Z,36.20
2022-12-22T06:01:28.564Z,40.10
2022-12-22T06:02:28.685Z,40.60
2022-12-22T06:03:28.795Z,41.60
2022-12-22T06:04:28.553Z,35.50
2022-12-22T06:05:28.459Z,38.70
2022-12-22T06:06:28.426Z,37.80
2022-12-22T06:07:28.404Z,41.90
2022-12-22T06:08:28.380Z,40.30
2022-12-22T06:09:28.342Z,40.00
2022-12-22T06:10:28.323Z,33.50
2022-12-22T06:11:28.288Z,37.70
2022-12-22T06:12:28.265Z,43.40
2022-12-22T06:13:28.248Z,44.60
2022-12-22T06:14:28.221Z,38.70
2022-12-22T06:15:28.206Z,45.70
2022-12-22T06:16:28.209Z,41.20
2022-12-22T06:17:28.132Z,32.80
2022-12-22T06:18:28.111Z,48.60
2022-12-22T06:19:28.082Z,43.30
2022-12-22T06:20:28.062Z,94.40
2022-12-22T06:21:28.032Z,40.80
2022-12-22T06:22:28.007Z,41.30
2022-12-22T06:23:27.987Z,30.60
2022-12-22T06:24:27.979Z,54.30
2022-12-22T06:25:27.928Z,40.30
2022-12-22T06:26:27.900Z,36.90
2022-12-22T06:27:27.872Z,33.50
2022-12-22T06:28:27.884Z,38.80
2022-12-22T06:29:27.821Z,35.80
2022-12-22T06:30:33.210Z,32.30
2022-12-22T06:31:27.821Z,33.40
2022-12-22T06:32:27.766Z,35.90
2022-12-22T06:33:27.720Z,46.40
2022-12-22T06:34:27.713Z,43.50
2022-12-22T06:35:27.669Z,42.30
2022-12-22T06:36:27.639Z,42.60
2022-12-22T06:37:27.610Z,37.80
2022-12-22T06:38:27.601Z,39.50
2022-12-22T06:39:27.562Z,41.10
2022-12-22T06:40:27.535Z,40.30
2022-12-22T06:41:27.506Z,37.50
2022-12-22T06:42:27.483Z,39.40
2022-12-22T06:43:27.455Z,40.30
2022-12-22T06:44:27.430Z,40.20
2022-12-22T06:45:27.404Z,38.10
2022-12-22T06:46:27.460Z,39.20
2022-12-22T06:47:27.353Z,39.80
2022-12-22T06:48:27.356Z,39.00
2022-12-22T06:49:27.299Z,36.50
2022-12-22T06:50:27.274Z,37.40
2022-12-22T06:51:27.272Z,37.70
2022-12-22T06:52:27.224Z,37.80
2022-12-22T06:53:27.195Z,33.80
2022-12-22T06:54:27.171Z,37.10
2022-12-22T06:55:27.145Z,35.00
2022-12-22T06:56:27.119Z,40.60
2022-12-22T06:57:27.094Z,36.20
2022-12-22T06:58:27.070Z,32.30
2022-12-22T06:59:27.051Z,31.10
2022-12-22T07:00:27.014Z,33.30
2022-12-22T07:01:27.121Z,40.20
2022-12-22T07:02:27.230Z,36.00
2022-12-22T07:03:27.112Z,38.30
2022-12-22T07:04:26.946Z,41.10
2022-12-22T07:05:26.886Z,41.50
2022-12-22T07:06:26.863Z,39.10
2022-12-22T07:07:26.832Z,38.50
2022-12-22T07:08:26.807Z,37.70
2022-12-22T07:09:26.785Z,35.20
2022-12-22T07:10:26.756Z,31.90
2022-12-22T07:11:26.735Z,34.10
2022-12-22T07:12:26.704Z,34.50
2022-12-22T07:13:26.677Z,38.40
2022-12-22T07:14:26.656Z,32.10
2022-12-22T07:15:26.628Z,33.00
2022-12-22T07:16:26.669Z,34.00
2022-12-22T07:17:26.574Z,34.60
2022-12-22T07:18:26.552Z,37.10
2022-12-22T07:19:26.546Z,35.90
2022-12-22T07:20:26.518Z,36.30
2022-12-22T07:21:26.469Z,35.70
2022-12-22T07:22:30.507Z,34.90
2022-12-22T07:23:26.421Z,41.30
2022-12-22T07:24:26.433Z,46.40
2022-12-22T07:25:26.367Z,48.80
2022-12-22T07:26:26.339Z,43.30
2022-12-22T07:27:26.346Z,39.80
2022-12-22T07:28:26.288Z,39.50
2022-12-22T07:29:26.267Z,48.70
2022-12-22T07:30:26.238Z,40.60
2022-12-22T07:31:26.438Z,44.90
2022-12-22T07:32:26.196Z,43.70
2022-12-22T07:33:26.160Z,42.00
2022-12-22T07:34:26.133Z,42.50
2022-12-22T07:35:26.105Z,44.30
2022-12-22T07:36:26.105Z,42.70
2022-12-22T07:37:26.056Z,48.30
2022-12-22T07:38:26.030Z,42.50
2022-12-22T07:39:26.002Z,41.90
2022-12-22T07:40:25.994Z,48.90
2022-12-22T07:41:25.946Z,47.50
2022-12-22T07:42:25.932Z,45.60
2022-12-22T07:43:25.899Z,38.60
2022-12-22T07:44:25.874Z,47.80
2022-12-22T07:45:25.847Z,42.90
2022-12-22T07:46:25.870Z,45.20
2022-12-22T07:47:30.047Z,43.50
2022-12-22T07:48:25.787Z,40.80
2022-12-22T07:49:25.751Z,42.70
2022-12-22T07:50:25.903Z,42.50
2022-12-22T07:51:25.692Z,42.80
2022-12-22T07:52:25.686Z,44.50
2022-12-22T07:53:25.638Z,41.30
2022-12-22T07:54:25.611Z,41.50
2022-12-22T07:55:25.596Z,40.10
2022-12-22T07:56:25.557Z,44.60
2022-12-22T07:57:25.533Z,45.40
2022-12-22T07:58:25.505Z,50.30
2022-12-22T07:59:25.482Z,46.90
2022-12-22T08:00:25.504Z,52.80
2022-12-22T08:01:25.540Z,56.60
2022-12-22T08:02:25.548Z,50.80
2022-12-22T08:03:25.415Z,45.60
2022-12-22T08:04:25.425Z,44.10
2022-12-22T08:05:25.325Z,47.50
2022-12-22T08:06:25.299Z,46.10
2022-12-22T08:07:25.279Z,45.10
2022-12-22T08:08:25.276Z,44.30
2022-12-22T08:09:25.226Z,52.90
2022-12-22T08:10:25.254Z,46.70
2022-12-22T08:11:25.174Z,47.30
2022-12-22T08:12:25.143Z,52.60
2022-12-22T08:13:25.179Z,49.30
2022-12-22T08:14:25.087Z,48.40
2022-12-22T08:15:25.066Z,48.30
2022-12-22T08:16:25.056Z,48.40
2022-12-22T08:17:25.015Z,51.20
2022-12-22T08:18:24.997Z,50.50
2022-12-22T08:19:24.961Z,55.20
2022-12-22T08:20:25.021Z,59.30
2022-12-22T08:21:24.907Z,50.10
2022-12-22T08:22:24.883Z,51.20
2022-12-22T08:23:24.853Z,54.70
2022-12-22T08:24:24.922Z,53.60
2022-12-22T08:25:24.800Z,55.10
2022-12-22T08:26:24.777Z,50.40
2022-12-22T08:27:26.389Z,56.50
2022-12-22T08:28:24.724Z,55.70
2022-12-22T08:29:24.695Z,57.60
2022-12-22T08:30:24.742Z,52.70
2022-12-22T08:31:24.660Z,60.10
2022-12-22T08:32:24.619Z,63.80
2022-12-22T08:33:24.592Z,59.20
2022-12-22T08:34:24.563Z,68.10
2022-12-22T08:35:24.538Z,61.80
2022-12-22T08:36:24.508Z,63.70
2022-12-22T08:37:24.492Z,59.80
2022-12-22T08:38:24.455Z,62.10
2022-12-22T08:39:24.439Z,57.80
2022-12-22T08:40:24.521Z,60.80
2022-12-22T08:41:24.385Z,59.40
2022-12-22T08:42:24.363Z,55.30
2022-12-22T08:43:24.330Z,57.70
2022-12-22T08:44:24.302Z,53.80
2022-12-22T08:45:24.278Z,57.00
2022-12-22T08:46:24.313Z,50.60
2022-12-22T08:47:24.273Z,57.10
2022-12-22T08:48:24.197Z,58.80
2022-12-22T08:49:24.179Z,50.50
2022-12-22T08:50:24.147Z,57.50
2022-12-22T08:51:24.157Z,58.20
2022-12-22T08:52:24.113Z,57.70
2022-12-22T08:54:02.407Z,58.80
2022-12-22T08:54:24.042Z,59.20
2022-12-22T08:55:24.016Z,63.30
2022-12-22T08:56:24.011Z,56.60
2022-12-22T08:57:23.975Z,61.50
2022-12-22T08:58:23.941Z,67.40
2022-12-22T08:59:23.959Z,62.40
2022-12-22T09:00:23.887Z,61.60
2022-12-22T09:01:23.902Z,61.40
2022-12-22T09:02:23.976Z,58.20
2022-12-22T09:03:23.917Z,63.70
2022-12-22T09:04:23.780Z,53.50
2022-12-22T09:05:23.756Z,58.50
2022-12-22T09:06:27.295Z,65.10
2022-12-22T09:07:23.706Z,61.60
2022-12-22T09:08:23.759Z,53.80
2022-12-22T09:09:23.657Z,56.10
2022-12-22T09:10:23.625Z,61.60
2022-12-22T09:11:23.601Z,49.10
2022-12-22T09:12:23.599Z,58.30
2022-12-22T09:13:23.549Z,65.20
2022-12-22T09:14:23.524Z,60.70
2022-12-22T09:15:23.549Z,51.90
2022-12-22T09:16:23.522Z,56.20
2022-12-22T09:17:23.442Z,50.60
2022-12-22T09:18:23.414Z,50.50
2022-12-22T09:19:23.390Z,52.40
2022-12-22T09:20:23.366Z,50.00
2022-12-22T09:21:23.352Z,53.20
2022-12-22T09:22:28.391Z,48.60
2022-12-22T09:23:23.287Z,43.20
2022-12-22T09:24:23.258Z,46.30
2022-12-22T09:25:23.240Z,40.80
2022-12-22T09:26:23.214Z,41.60
2022-12-22T09:27:23.186Z,45.70
2022-12-22T09:28:23.177Z,44.50
2022-12-22T09:29:23.137Z,40.40
2022-12-22T09:30:23.103Z,40.60
2022-12-22T09:31:23.153Z,39.90
2022-12-22T09:32:23.058Z,43.20
2022-12-22T09:33:23.026Z,39.60
2022-12-22T09:34:22.997Z,40.90
2022-12-22T09:35:22.978Z,39.80
2022-12-22T09:36:22.950Z,43.20
2022-12-22T09:37:22.920Z,41.60
2022-12-22T09:38:22.942Z,41.90
2022-12-22T09:39:28.538Z,40.00
2022-12-22T09:40:22.843Z,45.60
2022-12-22T09:41:22.815Z,38.70
2022-12-22T09:42:22.788Z,40.50
2022-12-22T09:43:22.774Z,45.10
2022-12-22T09:44:22.769Z,42.80
2022-12-22T09:45:22.724Z,39.50
2022-12-22T09:46:22.863Z,39.30
2022-12-22T09:47:22.657Z,40.30
2022-12-22T09:48:22.633Z,44.10
2022-12-22T09:49:22.609Z,39.90
2022-12-22T09:50:22.579Z,42.40
2022-12-22T09:51:26.738Z,40.40
2022-12-22T09:52:22.533Z,42.10
2022-12-22T09:53:22.509Z,42.30
2022-12-22T09:54:22.493Z,37.40
2022-12-22T09:55:22.447Z,42.00
2022-12-22T09:56:22.423Z,36.90
2022-12-22T09:57:22.394Z,38.80
2022-12-22T09:58:26.513Z,38.20
2022-12-22T09:59:22.347Z,41.30
2022-12-22T10:00:22.334Z,37.40
2022-12-22T10:01:22.352Z,38.10
2022-12-22T10:02:22.360Z,38.40
2022-12-22T10:03:22.302Z,40.20
2022-12-22T10:04:22.209Z,39.20
2022-12-22T10:05:22.288Z,41.20
2022-12-22T10:06:22.162Z,40.40
2022-12-22T10:07:22.133Z,43.50
2022-12-22T10:08:22.106Z,40.10
2022-12-22T10:09:48.117Z,40.30
2022-12-22T10:10:22.070Z,38.10
2022-12-22T10:11:22.034Z,37.50
2022-12-22T10:12:22.022Z,39.30
2022-12-22T10:13:21.982Z,37.80
2022-12-22T10:14:21.960Z,41.70
2022-12-22T10:15:22.344Z,40.70
2022-12-22T10:16:21.957Z,39.50
2022-12-22T10:17:21.873Z,36.60
2022-12-22T10:18:21.842Z,38.10
2022-12-22T10:19:21.817Z,37.60
2022-12-22T10:20:21.809Z,39.80
2022-12-22T10:21:21.765Z,36.20
2022-12-22T10:22:21.739Z,37.50
2022-12-22T10:23:21.721Z,34.30
2022-12-22T10:24:21.686Z,36.10
2022-12-22T10:25:21.672Z,35.00
2022-12-22T10:26:30.872Z,36.90
2022-12-22T10:27:27.442Z,37.20
2022-12-22T10:28:21.586Z,36.60
2022-12-22T10:29:21.571Z,33.90
2022-12-22T10:30:21.536Z,32.20
2022-12-22T10:31:21.645Z,34.60
2022-12-22T10:32:21.587Z,34.50
2022-12-22T10:33:21.453Z,34.50
2022-12-22T10:34:21.429Z,37.50
2022-12-22T10:35:21.402Z,33.40
2022-12-22T10:36:21.378Z,34.30
2022-12-22T10:37:21.350Z,37.80
2022-12-22T10:38:22.220Z,35.40
2022-12-22T10:39:21.346Z,32.70
2022-12-22T10:40:21.271Z,34.90
2022-12-22T10:41:21.252Z,36.00
2022-12-22T10:42:21.224Z,33.60
2022-12-22T10:43:21.194Z,32.30
2022-12-22T10:44:21.185Z,36.50
2022-12-22T10:45:21.151Z,35.40
2022-12-22T10:46:21.160Z,38.20
2022-12-22T10:47:21.235Z,34.20
2022-12-22T10:48:21.094Z,34.30
2022-12-22T10:49:21.041Z,33.50
2022-12-22T10:50:21.020Z,30.40
2022-12-22T10:51:20.995Z,38.60
2022-12-22T10:52:25.622Z,34.90
2022-12-22T10:53:20.943Z,37.60
2022-12-22T10:54:20.911Z,36.70
2022-12-22T10:55:20.899Z,36.20
2022-12-22T10:56:20.861Z,42.10
2022-12-22T10:57:20.973Z,35.30
2022-12-22T10:58:20.818Z,35.30
2022-12-22T10:59:20.804Z,34.00
2022-12-22T11:00:20.758Z,36.50
2022-12-22T11:01:20.750Z,37.50
2022-12-22T11:02:20.976Z,40.70
2022-12-22T11:03:24.432Z,33.90
2022-12-22T11:04:20.670Z,33.60
2022-12-22T11:05:20.631Z,38.60
2022-12-22T11:06:20.703Z,38.70
2022-12-22T11:07:20.646Z,34.90
2022-12-22T11:08:20.606Z,38.10
2022-12-22T11:09:35.790Z,37.80
2022-12-22T11:10:20.496Z,35.10
2022-12-22T11:11:20.474Z,36.90
2022-12-22T11:12:20.446Z,39.40
2022-12-22T11:13:20.422Z,35.60
2022-12-22T11:14:20.402Z,36.70
2022-12-22T11:15:24.642Z,33.80
2022-12-22T11:16:20.362Z,36.30
2022-12-22T11:17:20.436Z,35.60
2022-12-22T11:18:20.293Z,35.70
2022-12-22T11:19:20.273Z,36.20
2022-12-22T11:20:20.265Z,37.10
2022-12-22T11:21:24.062Z,39.50
2022-12-22T11:22:20.199Z,37.80
2022-12-22T11:23:20.177Z,35.10
2022-12-22T11:24:20.135Z,37.40
2022-12-22T11:25:20.114Z,34.20
2022-12-22T11:26:20.083Z,35.30
2022-12-22T11:27:20.096Z,34.70
2022-12-22T11:28:20.035Z,32.30
2022-12-22T11:29:20.022Z,34.70
2022-12-22T11:30:19.980Z,34.10
2022-12-22T11:31:19.999Z,32.10
2022-12-22T11:32:19.930Z,34.50
2022-12-22T11:33:19.913Z,34.20
2022-12-22T11:34:21.393Z,34.80
2022-12-22T11:35:19.864Z,33.00
2022-12-22T11:36:19.844Z,33.30
2022-12-22T11:37:19.891Z,31.70
2022-12-22T11:38:19.785Z,31.80
2022-12-22T11:39:19.749Z,32.30
2022-12-22T11:40:19.717Z,33.10
2022-12-22T11:41:19.843Z,28.90
2022-12-22T11:42:19.679Z,28.50
2022-12-22T11:43:19.647Z,29.40
2022-12-22T11:44:19.616Z,31.00
2022-12-22T11:45:19.591Z,27.10
2022-12-22T11:46:19.647Z,31.20
2022-12-22T11:47:19.594Z,29.10
2022-12-22T11:48:19.515Z,26.80
2022-12-22T11:49:19.485Z,28.20
2022-12-22T11:51:00.709Z,28.10
2022-12-22T11:51:23.834Z,29.70
2022-12-22T11:52:19.426Z,30.10
2022-12-22T11:53:19.379Z,29.20
2022-12-22T11:54:19.354Z,29.60
2022-12-22T11:55:19.344Z,28.70
2022-12-22T11:56:19.373Z,32.80
2022-12-22T11:57:19.360Z,32.30
2022-12-22T11:58:19.247Z,28.80
2022-12-22T11:59:19.227Z,30.70
2022-12-22T12:00:19.221Z,31.20
2022-12-22T12:01:25.636Z,29.70
2022-12-22T12:02:19.221Z,31.30
2022-12-22T12:03:19.272Z,28.80
2022-12-22T12:04:19.177Z,27.50
2022-12-22T12:05:19.121Z,28.60
2022-12-22T12:06:19.049Z,29.50
2022-12-22T12:07:25.136Z,28.90
2022-12-22T12:08:19.007Z,28.20
2022-12-22T12:09:18.959Z,30.30
2022-12-22T12:10:18.941Z,30.10
2022-12-22T12:11:18.977Z,31.30
2022-12-22T12:12:18.905Z,28.50
2022-12-22T12:13:26.379Z,31.00
2022-12-22T12:14:18.827Z,31.30
2022-12-22T12:15:18.805Z,29.90
2022-12-22T12:16:18.916Z,27.50
2022-12-22T12:17:18.751Z,29.60
2022-12-22T12:18:18.725Z,30.20
2022-12-22T12:19:24.711Z,28.00
2022-12-22T12:20:18.678Z,29.60
2022-12-22T12:21:18.641Z,26.20
2022-12-22T12:22:18.706Z,28.30
2022-12-22T12:23:18.591Z,34.70
2022-12-22T12:24:18.621Z,30.20
2022-12-22T12:25:23.782Z,25.80
2022-12-22T12:26:18.514Z,25.60
2022-12-22T12:27:18.485Z,24.40
2022-12-22T12:28:18.467Z,29.10
2022-12-22T12:29:18.439Z,27.90
2022-12-22T12:31:24.308Z,27.40
2022-12-22T12:32:18.357Z,25.30
2022-12-22T12:33:18.337Z,26.50
2022-12-22T12:34:18.308Z,28.10
2022-12-22T12:35:18.277Z,27.10
2022-12-22T12:36:18.252Z,23.00
2022-12-22T12:37:22.637Z,31.20
2022-12-22T12:38:56.435Z,23.80
2022-12-22T12:39:18.180Z,25.40
2022-12-22T12:40:18.172Z,26.60
2022-12-22T12:41:18.176Z,24.20
2022-12-22T12:42:18.104Z,26.70
2022-12-22T12:43:18.126Z,24.40
2022-12-22T12:44:18.064Z,23.50
2022-12-22T12:45:18.037Z,25.40
2022-12-22T12:46:18.006Z,23.00
2022-12-22T12:47:17.967Z,21.70
2022-12-22T12:48:17.943Z,24.20
2022-12-22T12:49:23.166Z,26.80
2022-12-22T12:50:17.890Z,22.80
2022-12-22T12:51:17.860Z,25.00
2022-12-22T12:52:17.841Z,28.90
2022-12-22T12:53:17.807Z,29.70